createdAt,value
2023-03-22T00:02:26.162Z,11.93
2023-03-22T00:04:56.458Z,11.89
2023-03-22T00:07:25.125Z,11.89
2023-03-22T00:09:53.526Z,11.87
2023-03-22T00:12:21.942Z,11.82
2023-03-22T00:14:50.510Z,11.79
2023-03-22T00:17:18.898Z,11.83
2023-03-22T00:19:47.420Z,11.86
2023-03-22T00:22:17.209Z,11.95
2023-03-22T00:24:45.821Z,11.95
2023-03-22T00:27:14.649Z,12.02
2023-03-22T00:29:43.419Z,11.93
2023-03-22T00:32:11.798Z,11.84
2023-03-22T00:34:40.340Z,11.90
2023-03-22T00:37:09.081Z,11.88
2023-03-22T00:39:39.065Z,11.88
2023-03-22T00:42:08.159Z,11.94
2023-03-22T00:44:36.449Z,11.95
2023-03-22T00:47:05.074Z,11.94
2023-03-22T00:49:35.118Z,11.84
2023-03-22T00:52:03.473Z,11.83
2023-03-22T00:54:31.774Z,11.93
2023-03-22T00:57:01.437Z,11.86
2023-03-22T00:59:30.327Z,11.78
2023-03-22T01:01:59.118Z,11.78
2023-03-22T01:04:27.917Z,11.85
2023-03-22T01:06:59.263Z,11.87
2023-03-22T01:09:30.843Z,11.82
2023-03-22T01:12:02.416Z,11.88
2023-03-22T01:14:31.731Z,11.92
2023-03-22T01:17:00.432Z,11.94
2023-03-22T01:19:28.919Z,11.94
2023-03-22T01:21:58.096Z,11.73
2023-03-22T01:24:26.692Z,11.98
2023-03-22T01:26:55.157Z,11.96
2023-03-22T01:29:25.092Z,11.95
2023-03-22T01:31:54.170Z,11.92
2023-03-22T01:34:22.884Z,12.02
2023-03-22T01:36:51.845Z,12.05
2023-03-22T01:39:20.560Z,12.05
2023-03-22T01:41:51.749Z,12.07
2023-03-22T01:44:24.644Z,12.03
2023-03-22T01:46:55.803Z,12.09
2023-03-22T01:49:29.839Z,12.10
2023-03-22T01:52:03.932Z,12.09
2023-03-22T01:55:01.817Z,12.11
2023-03-22T01:57:44.879Z,12.07
2023-03-22T02:00:20.627Z,12.05
2023-03-22T02:03:09.433Z,12.13
2023-03-22T02:05:44.871Z,12.15
2023-03-22T02:08:15.196Z,12.25
2023-03-22T02:11:00.597Z,12.19
2023-03-22T02:14:00.750Z,12.29
2023-03-22T02:17:20.699Z,12.34
2023-03-22T02:21:03.950Z,12.34
2023-03-22T02:24:11.823Z,12.29
2023-03-22T02:27:31.200Z,12.34
2023-03-22T02:30:32.273Z,12.39
2023-03-22T02:33:35.817Z,12.46
2023-03-22T02:36:42.856Z,12.44
2023-03-22T02:39:25.554Z,12.42
2023-03-22T02:42:10.947Z,12.38
2023-03-22T02:44:44.273Z,12.43
2023-03-22T02:47:23.478Z,12.41
2023-03-22T02:50:00.343Z,12.34
2023-03-22T02:52:35.985Z,12.37
2023-03-22T02:55:12.821Z,12.39
2023-03-22T02:57:48.335Z,12.37
2023-03-22T03:00:19.485Z,12.16
2023-03-22T03:02:52.384Z,12.30
2023-03-22T03:05:22.875Z,12.22
2023-03-22T03:07:58.441Z,12.21
2023-03-22T03:10:29.013Z,12.19
2023-03-22T03:12:57.357Z,12.23
2023-03-22T03:15:25.962Z,12.23
2023-03-22T03:18:26.377Z,12.19
2023-03-22T03:21:04.399Z,12.16
2023-03-22T03:23:43.206Z,12.14
2023-03-22T03:26:25.108Z,12.10
2023-03-22T03:29:00.670Z,12.11
2023-03-22T03:31:36.408Z,12.09
2023-03-22T03:34:14.971Z,12.18
2023-03-22T03:36:52.322Z,12.18
2023-03-22T03:39:23.521Z,12.17
2023-03-22T03:41:57.722Z,12.17
2023-03-22T03:44:28.465Z,12.12
2023-03-22T03:46:57.480Z,12.07
2023-03-22T03:49:27.133Z,12.12
2023-03-22T03:51:57.272Z,12.14
2023-03-22T03:54:26.000Z,12.11
2023-03-22T03:56:56.015Z,12.11
2023-03-22T03:59:24.399Z,12.14
2023-03-22T04:01:54.274Z,12.12
2023-03-22T04:04:29.803Z,12.01
2023-03-22T04:07:06.094Z,11.98
2023-03-22T04:09:40.406Z,12.03
2023-03-22T04:12:18.571Z,11.97
2023-03-22T04:15:06.926Z,11.99
2023-03-22T04:17:36.005Z,11.92
2023-03-22T04:20:06.173Z,11.95
2023-03-22T04:22:38.345Z,11.91
2023-03-22T04:25:11.758Z,11.29
2023-03-22T04:27:47.232Z,11.92
2023-03-22T04:30:18.892Z,11.91
2023-03-22T04:32:59.099Z,11.91
2023-03-22T04:35:40.098Z,11.87
2023-03-22T04:38:09.748Z,11.85
2023-03-22T04:40:38.867Z,11.83
2023-03-22T04:43:19.633Z,11.88
2023-03-22T04:45:58.256Z,11.88
2023-03-22T04:48:32.545Z,11.85
2023-03-22T04:51:04.139Z,11.87
2023-03-22T04:53:39.473Z,11.95
2023-03-22T04:56:11.790Z,11.93
2023-03-22T04:58:43.592Z,11.92
2023-03-22T05:01:14.013Z,11.91
2023-03-22T05:03:47.369Z,11.96
2023-03-22T05:06:18.362Z,11.93
2023-03-22T05:09:05.985Z,11.91
2023-03-22T05:11:34.578Z,11.93
2023-03-22T05:14:30.527Z,11.93
2023-03-22T05:16:58.986Z,11.86
2023-03-22T05:19:27.833Z,11.77
2023-03-22T05:21:58.545Z,11.72
2023-03-22T05:24:39.765Z,11.86
2023-03-22T05:27:14.198Z,11.90
2023-03-22T05:29:45.244Z,11.78
2023-03-22T05:32:25.784Z,11.78
2023-03-22T05:34:57.028Z,11.72
2023-03-22T05:37:32.849Z,11.76
2023-03-22T05:40:01.701Z,11.69
2023-03-22T05:42:37.551Z,11.64
2023-03-22T05:45:17.135Z,11.67
2023-03-22T05:47:49.750Z,11.60
2023-03-22T05:50:24.030Z,11.55
2023-03-22T05:52:53.363Z,11.62
2023-03-22T05:55:44.894Z,11.69
2023-03-22T05:58:18.949Z,11.65
2023-03-22T06:00:51.421Z,11.67
2023-03-22T06:03:22.380Z,11.67
2023-03-22T06:05:56.946Z,11.62
2023-03-22T06:08:41.575Z,11.65
2023-03-22T06:11:10.303Z,11.49
2023-03-22T06:13:38.961Z,11.67
2023-03-22T06:16:11.158Z,11.67
2023-03-22T06:18:39.740Z,11.68
2023-03-22T06:21:12.062Z,11.73
2023-03-22T06:23:40.501Z,11.75
2023-03-22T06:26:11.367Z,11.71
2023-03-22T06:28:40.769Z,11.70
2023-03-22T06:31:11.466Z,11.74
2023-03-22T06:33:59.378Z,11.73
2023-03-22T06:36:48.029Z,11.75
2023-03-22T06:39:29.528Z,11.61
2023-03-22T06:41:57.922Z,11.69
2023-03-22T06:44:26.470Z,11.76
2023-03-22T06:47:08.858Z,11.70
2023-03-22T06:49:53.862Z,11.71
2023-03-22T06:52:26.815Z,11.78
2023-03-22T06:54:56.779Z,11.86
2023-03-22T06:57:25.987Z,11.78
2023-03-22T06:59:54.520Z,11.80
2023-03-22T07:02:24.362Z,11.81
2023-03-22T07:05:14.309Z,11.86
2023-03-22T07:07:43.546Z,11.77
2023-03-22T07:10:12.057Z,11.83
2023-03-22T07:12:40.606Z,11.82
2023-03-22T07:15:13.597Z,11.83
2023-03-22T07:18:02.844Z,11.91
2023-03-22T07:20:36.887Z,11.97
2023-03-22T07:23:05.878Z,11.82
2023-03-22T07:25:40.405Z,11.78
2023-03-22T07:28:23.092Z,11.15
2023-03-22T07:31:02.161Z,11.75
2023-03-22T07:33:35.508Z,11.84
2023-03-22T07:36:03.869Z,11.82
2023-03-22T07:38:32.238Z,11.84
2023-03-22T07:41:00.601Z,11.82
2023-03-22T07:43:54.028Z,11.81
2023-03-22T07:46:25.094Z,11.69
2023-03-22T07:49:33.075Z,11.76
2023-03-22T07:52:09.116Z,11.08
2023-03-22T07:54:37.424Z,11.68
2023-03-22T07:57:08.612Z,11.66
2023-03-22T07:59:43.504Z,11.54
2023-03-22T08:02:12.404Z,11.49
2023-03-22T08:04:53.174Z,11.58
2023-03-22T08:07:43.191Z,11.52
2023-03-22T08:10:13.071Z,11.46
2023-03-22T08:12:41.829Z,11.38
2023-03-22T08:15:22.865Z,11.39
2023-03-22T08:17:51.927Z,11.36
2023-03-22T08:20:32.772Z,11.35
2023-03-22T08:23:07.916Z,11.30
2023-03-22T08:25:59.352Z,11.27
2023-03-22T08:28:27.845Z,11.33
2023-03-22T08:30:56.177Z,11.29
2023-03-22T08:33:25.370Z,11.31
2023-03-22T08:36:08.499Z,11.34
2023-03-22T08:38:45.210Z,11.34
2023-03-22T08:41:16.106Z,11.27
2023-03-22T08:43:44.713Z,11.34
2023-03-22T08:46:13.206Z,11.30
2023-03-22T08:48:42.284Z,11.36
2023-03-22T08:51:27.672Z,11.23
2023-03-22T08:54:19.127Z,11.21
2023-03-22T08:57:09.447Z,11.36
2023-03-22T09:00:00.558Z,11.39
2023-03-22T09:02:45.339Z,11.32
2023-03-22T09:05:14.730Z,11.37
2023-03-22T09:07:45.600Z,11.38
2023-03-22T09:10:25.152Z,11.41
2023-03-22T09:12:53.725Z,11.39
2023-03-22T09:15:22.013Z,11.35
2023-03-22T09:18:04.967Z,11.42
2023-03-22T09:20:34.623Z,11.41
2023-03-22T09:23:05.313Z,11.44
2023-03-22T09:25:33.743Z,11.44
2023-03-22T09:28:02.466Z,11.48
2023-03-22T09:30:31.046Z,11.42
2023-03-22T09:32:59.452Z,11.48
2023-03-22T09:35:27.719Z,11.52
2023-03-22T09:38:06.556Z,11.47
2023-03-22T09:40:36.630Z,11.43
2023-03-22T09:43:09.103Z,11.35
2023-03-22T09:45:43.769Z,11.51
2023-03-22T09:48:18.280Z,11.38
2023-03-22T09:50:49.989Z,11.35
2023-03-22T09:53:21.237Z,11.47
2023-03-22T09:55:56.876Z,11.49
2023-03-22T09:58:32.912Z,11.45
2023-03-22T10:01:05.844Z,11.53
2023-03-22T10:04:14.315Z,11.54
2023-03-22T10:06:50.723Z,11.53
2023-03-22T10:09:30.557Z,11.51
2023-03-22T10:12:05.164Z,11.48
2023-03-22T10:14:41.341Z,11.54
2023-03-22T10:17:14.665Z,11.51
2023-03-22T10:19:53.433Z,11.52
2023-03-22T10:22:27.912Z,11.67
2023-03-22T10:24:58.626Z,11.67
2023-03-22T10:27:27.839Z,11.58
2023-03-22T10:30:02.164Z,11.60
2023-03-22T10:32:54.720Z,11.72
2023-03-22T10:35:27.291Z,11.74
2023-03-22T10:37:56.979Z,11.74
2023-03-22T10:40:31.575Z,11.75
2023-03-22T10:43:04.714Z,11.85
2023-03-22T10:45:36.191Z,11.88
2023-03-22T10:48:10.741Z,11.93
2023-03-22T10:50:43.448Z,11.82
2023-03-22T10:53:19.396Z,11.88
2023-03-22T10:55:49.200Z,11.90
2023-03-22T10:58:19.871Z,12.06
2023-03-22T11:00:49.527Z,12.06
2023-03-22T11:03:31.825Z,12.18
2023-03-22T11:06:08.754Z,12.11
2023-03-22T11:08:45.633Z,12.20
2023-03-22T11:11:23.394Z,12.34
2023-03-22T11:14:04.308Z,12.28
2023-03-22T11:16:34.048Z,12.28
2023-03-22T11:19:04.028Z,12.07
2023-03-22T11:21:34.455Z,12.23
2023-03-22T11:24:06.920Z,12.12
2023-03-22T11:26:41.373Z,12.27
2023-03-22T11:29:17.988Z,12.28
2023-03-22T11:31:57.186Z,12.34
2023-03-22T11:34:29.446Z,12.37
2023-03-22T11:37:01.292Z,12.40
2023-03-22T11:39:31.048Z,12.37
2023-03-22T11:42:03.969Z,12.41
2023-03-22T11:44:35.931Z,12.46
2023-03-22T11:47:08.957Z,12.40
2023-03-22T11:49:46.453Z,12.46
2023-03-22T11:52:20.012Z,12.49
2023-03-22T11:54:49.020Z,12.46
2023-03-22T11:57:23.004Z,12.51
2023-03-22T11:59:59.547Z,12.54
2023-03-22T12:02:31.690Z,12.53
2023-03-22T12:05:09.381Z,12.37
2023-03-22T12:07:39.636Z,12.56
2023-03-22T12:10:17.330Z,12.61
2023-03-22T12:12:52.346Z,12.61
2023-03-22T12:15:24.178Z,12.64
2023-03-22T12:17:58.266Z,12.75
2023-03-22T12:20:38.052Z,12.74
2023-03-22T12:23:16.299Z,12.76
2023-03-22T12:25:51.690Z,12.77
2023-03-22T12:28:26.514Z,12.73
2023-03-22T12:30:58.607Z,12.78
2023-03-22T12:33:30.992Z,12.68
2023-03-22T12:36:03.625Z,12.75
2023-03-22T12:38:39.246Z,12.71
2023-03-22T12:41:12.782Z,12.85
2023-03-22T12:43:50.024Z,12.79
2023-03-22T12:46:22.649Z,12.94
2023-03-22T12:48:54.394Z,12.99
2023-03-22T12:51:22.878Z,13.12
2023-03-22T12:53:54.898Z,13.13
2023-03-22T12:56:27.751Z,13.05
2023-03-22T12:59:01.192Z,13.15
2023-03-22T13:01:40.654Z,13.11
2023-03-22T13:04:32.669Z,13.06
2023-03-22T13:07:16.261Z,13.07
2023-03-22T13:09:46.602Z,12.87
2023-03-22T13:12:33.607Z,13.07
2023-03-22T13:15:41.301Z,13.05
2023-03-22T13:18:33.456Z,13.16
2023-03-22T13:21:14.436Z,13.15
2023-03-22T13:24:00.602Z,13.26
2023-03-22T13:26:45.710Z,13.31
2023-03-22T13:29:19.687Z,13.33
2023-03-22T13:31:58.680Z,13.27
2023-03-22T13:34:39.937Z,13.38
2023-03-22T13:37:25.308Z,13.10
2023-03-22T13:39:53.829Z,13.35
2023-03-22T13:42:24.973Z,13.34
2023-03-22T13:45:02.405Z,13.33
2023-03-22T13:47:35.935Z,13.29
2023-03-22T13:50:13.279Z,13.20
2023-03-22T13:52:44.884Z,13.21
2023-03-22T13:55:42.335Z,13.16
2023-03-22T13:58:12.929Z,13.17
2023-03-22T14:00:49.550Z,13.30
2023-03-22T14:03:28.557Z,13.26
2023-03-22T14:06:15.058Z,13.27
2023-03-22T14:08:45.514Z,13.28
2023-03-22T14:11:28.098Z,13.27
2023-03-22T14:14:02.070Z,13.18
2023-03-22T14:16:39.578Z,13.21
2023-03-22T14:19:17.951Z,12.97
